ENVAENML

Guest
Details From ENVA - Vaernes
To ENML - Molde Aro
Flight Number -
Tags generated
Created
Modified
Stats Distance 108 nm / 200 km
Max Altitude 1,600 ft / 488 m
Waypoints 3
Social Downloads 2
Likes 0
Share

Download

Looking for another format? Having issues loading an existing format? Contact us
Advertisement - Login to hide

Notes

Basic altitude profile: - Ascent Rate: 2500ft/min - Ascent Speed: 250kts - Cruise Altitude: 35000ft - Cruise Speed: 420kts - Descent Rate: 1500ft/min - Descent Speed: 250kts Options: - Use NATs: yes - Use PACOTS: yes - Use low airways: yes - Use high airways: yes

Route

ENVA VAGSI ENML

ID Type Via Altitude (ft/m) Position (lat/lon) Dist (leg/tot) Name
O ENVA APT - 0 / 0 63.45760 / 10.91798 - / 0 nm Vaernes
VAGSI FIX - 1,600 / 488 62.81111 / 7.50000 100 / 100 nm
O ENML APT - 0 / 0 62.74557 / 7.26748 7 / 108 nm Molde Aro

Altitude Profile

Advertisement - Login to hide

ENVA

Details ICAO ENVA (TRD)
Name Trondheim Vaernes
Region Norway
Timezone Europe/Oslo (UTC+2.0)
Stats Elevation 56 ft / 17 m (AMSL)
Location 63.457500° 10.924200°
Runways 1
Magnetic Variation 4.348° E

METAR

ENVA 270450Z VRB02KT 9999 FEW020 SCT041 BKN090 08/06 Q1003 TEMPO SHRA BKN014TCU RMK WIND 670FT 32005KT

Decode

TAF

TAF ENVA 262300Z 2700/2724 29008KT 9999 -SHRA FEW020TCU BKN040 TEMPO 2700/2712 SHRA BKN014TCU BECMG 2709/2712 29018KT TEMPO 2712/2724 4000 SHRA BKN009 SCT015CB

Decode

Departure Runways

ID Width Length Bearing (true/mag) Surface Threshold Overrun Markings Lighting
09 148 ft / 45 m 9,744 ft / 2,970 m 90.18° / 85.84° ASPHALT 830 ft / 253 m 0 ft / 0 m PREC-APP CENTERLINE EDGE THRESHOLD CALVERT REIL-OMNI
27 148 ft / 45 m 9,744 ft / 2,970 m 270.24° / 265.89° ASPHALT 745 ft / 227 m 0 ft / 0 m PREC-APP CENTERLINE EDGE THRESHOLD CALVERT REIL-OMNI

ENML

Details ICAO ENML (MOL)
Name Molde Aro
Region Norway
Timezone Europe/Oslo (UTC+2.0)
Stats Elevation 9 ft / 3 m (AMSL)
Location 62.745500° 7.267140°
Runways 1
Magnetic Variation 2.568° E

METAR

ENML 270450Z 04003KT 9999 FEW001 07/05 Q1003

Decode

TAF

Not found

Destination Runways

ID Width Length Bearing (true/mag) Surface Threshold Overrun Markings Lighting
07 148 ft / 45 m 7,290 ft / 2,222 m 70.97° / 68.40° ASPHALT 482 ft / 147 m 0 ft / 0 m PREC-APP CENTERLINE EDGE THRESHOLD CALVERT
25 148 ft / 45 m 7,290 ft / 2,222 m 251.00° / 248.43° ASPHALT 322 ft / 98 m 0 ft / 0 m PREC-APP CENTERLINE EDGE THRESHOLD CALVERT

Approach Navaids

Runway Type Ident Frequency Range Bearing (true/mag) Slope Elevation
07 LOC-ILS ML 109.75 MHz 18 nm / 33 km 70.99° / 68.42 ° - 9 ft / 3 m (AMSL)
07 GS ML 109.75 MHz 10 nm / 19 km 70.99° / 68.42 ° 3.10° 9 ft / 3 m (AMSL)

Popular Alternatives